Time;durP1;ratioP1;P1;durP2;ratioP2;P2;SDS_P1;SDS_P2;PMS_P1;PMS_P2;Temp;Humidity;BMP_temperature;BMP_pressure;BME280_temperature;BME280_humidity;BME280_pressure;Samples;Min_cycle;Max_cycle;Signal;HPM_P1;HPM_P2
2022/03/26 08:51:17;;;;;;;29.92;14.95;;;;;;;17.06;40.47;99603.41;1810967;78;25615;-85
2022/03/26 08:53:44;;;;;;;25.00;12.90;;;;;;;17.22;40.58;99606.20;1792397;79;25635;-75
2022/03/26 08:56:11;;;;;;;22.05;13.35;;;;;;;17.38;41.52;99598.91;1791761;80;26878;-75
2022/03/26 08:58:37;;;;;;;25.57;13.15;;;;;;;17.52;41.73;99599.22;1789660;79;25678;-75
2022/03/26 09:01:08;;;;;;;23.25;13.75;;;;;;;17.66;42.31;99600.34;1793434;80;25656;-92
2022/03/26 09:03:38;;;;;;;23.57;13.00;;;;;;;17.84;43.16;99600.20;1797746;79;25451;-91
2022/03/26 09:06:07;;;;;;;23.70;13.00;;;;;;;17.97;43.55;99594.94;1806109;79;25483;-91
2022/03/26 09:08:36;;;;;;;21.50;13.03;;;;;;;18.06;43.59;99585.14;1806413;79;27376;-90
2022/03/26 09:11:04;;;;;;;23.00;12.70;;;;;;;18.24;44.35;99591.34;1806474;79;25273;-91
2022/03/26 09:13:31;;;;;;;19.20;12.37;;;;;;;18.37;44.56;99588.59;1806481;79;25626;-91
2022/03/26 09:15:58;;;;;;;20.25;11.83;;;;;;;18.50;44.57;99582.48;1799641;79;25906;-89
2022/03/26 09:18:26;;;;;;;22.80;12.70;;;;;;;18.63;44.75;99579.16;1792149;80;25439;-90
2022/03/26 09:20:52;;;;;;;17.82;12.13;;;;;;;18.74;44.98;99573.36;1792574;80;28408;-91
2022/03/26 09:23:19;;;;;;;19.60;11.90;;;;;;;18.86;44.90;99576.73;1792411;80;25635;-89
2022/03/26 09:25:45;;;;;;;21.02;12.25;;;;;;;18.97;45.24;99568.72;1792599;80;25589;-89
2022/03/26 09:28:12;;;;;;;19.07;11.68;;;;;;;19.01;45.16;99564.11;1792667;80;25445;-89
2022/03/26 09:30:38;;;;;;;19.32;11.18;;;;;;;19.17;45.34;99571.77;1792639;80;25446;-89
2022/03/26 09:33:06;;;;;;;21.20;11.25;;;;;;;19.27;45.50;99569.89;1792562;80;28227;-89
2022/03/26 09:35:32;;;;;;;19.80;12.20;;;;;;;19.35;45.57;99562.58;1792393;80;25712;-92
2022/03/26 09:38:01;;;;;;;19.90;11.95;;;;;;;19.43;45.82;99568.56;1792474;80;25786;-91
2022/03/26 09:40:28;;;;;;;18.37;11.12;;;;;;;19.50;45.86;99562.41;1792136;80;25443;-92
2022/03/26 09:42:54;;;;;;;16.55;10.82;;;;;;;19.57;45.90;99556.23;1792719;80;25454;-93
2022/03/26 09:45:22;;;;;;;18.23;10.98;;;;;;;19.63;45.96;99552.05;1792712;80;28000;-92
2022/03/26 09:47:48;;;;;;;17.62;10.58;;;;;;;19.70;46.10;99561.19;1792019;80;25988;-92
2022/03/26 09:50:15;;;;;;;16.40;10.98;;;;;;;19.76;46.14;99558.38;1780576;79;25692;-91
2022/03/26 09:52:42;;;;;;;25.05;10.98;;;;;;;19.81;46.20;99553.15;1766638;81;25411;-92
2022/03/26 09:55:12;;;;;;;34.18;13.05;;;;;;;19.86;46.23;99549.30;1766785;80;25755;-93
2022/03/26 09:57:40;;;;;;;38.92;12.85;;;;;;;19.91;46.23;99551.23;1766599;80;27574;-90
2022/03/26 10:00:09;;;;;;;32.90;12.00;;;;;;;19.94;46.23;99540.80;1766471;80;25734;-88
2022/03/26 10:02:36;;;;;;;26.40;11.80;;;;;;;20.00;46.16;99541.94;1766192;80;25736;-89
2022/03/26 10:05:05;;;;;;;26.05;11.08;;;;;;;20.03;46.25;99531.48;1765990;81;25709;-90
2022/03/26 10:07:31;;;;;;;25.12;11.65;;;;;;;20.07;46.25;99537.98;1766053;81;25639;-90
2022/03/26 10:09:58;;;;;;;21.70;11.22;;;;;;;20.11;46.21;99526.92;1765983;81;28275;-90
2022/03/26 10:12:26;;;;;;;21.25;10.03;;;;;;;20.15;46.18;99529.23;1765881;80;25667;-90
2022/03/26 10:14:59;;;;;;;19.50;10.50;;;;;;;20.17;46.21;99522.71;1765633;81;25778;-89
2022/03/26 10:17:36;;;;;;;20.12;10.90;;;;;;;20.20;46.13;99518.42;1765930;80;25419;-89
2022/03/26 10:20:06;;;;;;;20.57;10.00;;;;;;;20.21;46.02;99523.63;1765753;80;25625;-90
2022/03/26 10:22:50;;;;;;;22.32;10.82;;;;;;;20.22;46.00;99516.89;1766207;81;27436;-91
2022/03/26 10:25:22;;;;;;;20.48;10.80;;;;;;;20.24;45.95;99509.00;1765683;81;25482;-92
2022/03/26 10:27:55;;;;;;;18.70;10.63;;;;;;;20.27;45.63;99514.42;1765831;80;25629;-92
2022/03/26 10:33:27;;;;;;;18.92;10.30;;;;;;;20.27;44.86;99507.47;1765952;81;25688;-93
2022/03/26 10:35:59;;;;;;;18.07;10.30;;;;;;;20.27;44.79;99499.91;1766298;80;27544;-95
2022/03/26 10:38:37;;;;;;;26.57;11.48;;;;;;;20.28;44.90;99496.55;1765941;81;25978;-93
2022/03/26 10:41:07;;;;;;;31.97;11.57;;;;;;;20.29;44.99;99501.76;1765788;80;25415;-93
2022/03/26 10:43:34;;;;;;;;;;;;;;;20.30;45.17;99499.80;1768744;81;25697;-93
2022/03/26 10:46:02;;;;;;;41.50;12.78;;;;;;;20.32;46.04;99508.57;1766304;80;25640;-93
2022/03/26 10:48:32;;;;;;;31.27;11.53;;;;;;;20.29;46.21;99493.98;1766126;81;28283;-91
2022/03/26 10:51:02;;;;;;;31.82;12.03;;;;;;;20.30;46.72;99494.23;1785355;79;32455;-92
2022/03/26 10:53:40;;;;;;;29.87;11.60;;;;;;;20.28;47.17;99490.41;1797311;79;32249;-93
2022/03/26 10:56:09;;;;;;;27.75;11.05;;;;;;;20.27;47.84;99485.99;1797778;79;25782;-92
2022/03/26 10:58:38;;;;;;;23.47;11.20;;;;;;;20.29;47.75;99489.81;1798018;79;25718;-93
2022/03/26 11:01:06;;;;;;;29.72;11.35;;;;;;;20.27;47.84;99489.38;1797862;79;27368;-93
2022/03/26 11:03:34;;;;;;;20.62;9.83;;;;;;;20.27;47.43;99492.16;1794480;79;25583;-93
2022/03/26 11:06:01;;;;;;;25.85;10.03;;;;;;;20.26;47.26;99488.56;1797821;79;25635;-93
2022/03/26 11:08:32;;;;;;;21.05;9.50;;;;;;;20.25;46.86;99474.44;1797729;79;25651;-93
2022/03/26 11:11:04;;;;;;;20.88;9.58;;;;;;;20.28;46.43;99484.03;1797345;79;25442;-92
2022/03/26 11:13:34;;;;;;;20.17;9.30;;;;;;;20.26;46.05;99467.69;1797405;79;28358;-93
2022/03/26 11:16:11;;;;;;;17.70;9.43;;;;;;;20.25;45.70;99473.05;1797806;79;25606;-93
2022/03/26 11:19:16;;;;;;;17.42;8.93;;;;;;;20.25;45.43;99466.66;1797683;79;26360;-94
2022/03/26 11:22:03;;;;;;;15.55;8.35;;;;;;;20.24;45.13;99465.88;1797735;79;25486;-91
2022/03/26 11:25:03;;;;;;;16.20;8.18;;;;;;;20.22;44.72;99457.64;1796836;79;25592;-90
2022/03/26 11:27:44;;;;;;;13.50;7.60;;;;;;;20.21;44.68;99447.69;1797762;79;28286;-88
2022/03/26 11:30:35;;;;;;;16.75;8.55;;;;;;;20.19;44.66;99449.44;1797044;79;25473;-88
2022/03/26 11:33:13;;;;;;;13.08;8.45;;;;;;;20.17;44.77;99447.58;1797521;79;25708;-90
2022/03/26 11:35:57;;;;;;;18.30;8.00;;;;;;;20.15;44.88;99445.16;1797775;79;25615;-89
2022/03/26 11:38:28;;;;;;;16.30;8.20;;;;;;;20.15;44.83;99440.20;1797715;79;25628;-89
2022/03/26 11:41:01;;;;;;;17.60;8.13;;;;;;;20.15;44.98;99431.85;1797197;79;26705;-91
2022/03/26 11:43:49;;;;;;;17.42;8.00;;;;;;;20.15;45.17;99430.46;1797456;79;25655;-93
2022/03/26 11:52:21;;;;;;;15.75;7.50;;;;;;;20.15;45.34;99433.24;1767188;79;25395;-89
2022/03/26 11:54:55;;;;;;;15.08;7.12;;;;;;;20.16;45.40;99432.88;1766151;81;27439;-89
2022/03/26 11:57:24;;;;;;;20.20;7.55;;;;;;;20.16;45.51;99422.33;1763166;80;26088;-92
2022/03/26 11:59:52;;;;;;;14.10;7.28;;;;;;;20.15;45.58;99418.72;1764179;81;25708;-92
2022/03/26 12:02:29;;;;;;;14.87;7.35;;;;;;;20.16;45.71;99421.75;1765547;81;25412;-92
2022/03/26 12:06:35;;;;;;;15.93;7.42;;;;;;;20.15;45.65;99417.94;1765295;80;25696;-91
2022/03/26 12:07:31;;;;;;;13.75;7.28;;;;;;;20.16;45.71;99421.75;1762716;81;26031;-95
2022/03/26 12:10:12;;;;;;;12.82;6.55;;;;;;;20.16;45.71;99413.98;1765929;80;25490;-93
2022/03/26 12:13:01;;;;;;;14.50;7.60;;;;;;;20.17;45.79;99416.41;1766076;80;25677;-95
2022/03/26 12:15:33;;;;;;;14.18;6.97;;;;;;;20.18;45.85;99414.44;1765941;81;25987;-94
2022/03/26 12:18:09;;;;;;;12.23;7.22;;;;;;;20.16;45.92;99406.45;1766086;80;25394;-94
2022/03/26 12:20:43;;;;;;;10.48;6.97;;;;;;;20.17;45.88;99401.67;1765999;80;27609;-95
2022/03/26 12:23:28;;;;;;;9.28;6.42;;;;;;;20.15;45.84;99414.55;1765785;81;25680;-95
2022/03/26 12:26:07;;;;;;;12.10;6.60;;;;;;;20.16;45.88;99413.41;1765570;80;25704;-96
2022/03/26 12:28:37;;;;;;;13.43;7.10;;;;;;;20.15;45.84;99399.25;1765916;80;25645;-95
2022/03/26 12:31:09;;;;;;;14.33;7.37;;;;;;;20.14;45.88;99395.44;1766107;80;25183;-95
2022/03/26 12:33:50;;;;;;;16.37;6.67;;;;;;;20.14;45.99;99389.88;1765928;80;28181;-92
2022/03/26 12:36:21;;;;;;;11.78;6.80;;;;;;;20.14;45.93;99392.66;1765562;80;25475;-94
2022/03/26 12:38:53;;;;;;;10.40;6.60;;;;;;;20.14;45.93;99387.09;1766313;80;25385;-93
2022/03/26 12:41:20;;;;;;;12.55;6.58;;;;;;;20.15;45.95;99392.30;1766751;80;25207;-89
2022/03/26 12:44:01;;;;;;;12.53;6.97;;;;;;;20.15;45.96;99389.51;1766602;80;25840;-92
2022/03/26 12:46:35;;;;;;;11.33;6.87;;;;;;;20.15;46.03;99382.55;1765993;80;27601;-92
2022/03/26 12:49:21;;;;;;;14.00;6.33;;;;;;;20.16;46.05;99380.59;1765789;80;25895;-91
2022/03/26 12:51:53;;;;;;;12.37;6.33;;;;;;;20.17;46.15;99377.45;1783017;80;25762;-93
2022/03/26 12:54:21;;;;;;;13.13;6.60;;;;;;;20.18;46.27;99375.48;1789545;80;25246;-95
2022/03/26 12:56:52;;;;;;;12.82;6.87;;;;;;;20.18;46.41;99365.14;1791978;80;25648;-91
2022/03/26 12:59:20;;;;;;;15.08;6.65;;;;;;;20.18;46.46;99364.35;1792446;80;27459;-95
2022/03/26 13:01:46;;;;;;;11.10;6.25;;;;;;;20.18;46.60;99374.88;1792135;80;25668;-94
2022/03/26 13:04:18;;;;;;;13.15;5.95;;;;;;;20.21;46.56;99364.20;1791972;80;25696;-95
2022/03/26 13:06:44;;;;;;;12.88;6.40;;;;;;;20.21;46.73;99366.98;1791623;80;25608;-92
2022/03/26 13:09:11;;;;;;;11.38;6.30;;;;;;;20.20;46.77;99368.16;1791969;80;25612;-92
2022/03/26 13:11:37;;;;;;;11.55;6.80;;;;;;;20.18;46.85;99355.40;1791353;80;27435;-91
2022/03/26 13:14:05;;;;;;;17.55;6.40;;;;;;;20.20;46.82;99356.43;1791936;80;25715;-92
2022/03/26 13:16:34;;;;;;;9.90;6.25;;;;;;;20.20;46.81;99356.43;1791804;80;25660;-89
2022/03/26 13:19:10;;;;;;;12.95;6.37;;;;;;;20.21;46.84;99353.07;1791722;80;25636;-89
2022/03/26 13:21:41;;;;;;;11.60;6.10;;;;;;;20.20;46.82;99348.08;1791887;80;25767;-90
2022/03/26 13:24:11;;;;;;;11.68;6.70;;;;;;;20.20;46.86;99346.69;1791938;80;26747;-89
2022/03/26 13:26:53;;;;;;;14.68;6.17;;;;;;;20.18;47.01;99348.44;1791848;80;25964;-91
2022/03/26 13:29:30;;;;;;;12.18;6.42;;;;;;;20.17;47.01;99342.66;1791688;80;25799;-91
2022/03/26 13:32:00;;;;;;;8.83;5.97;;;;;;;20.17;47.11;99339.88;1791576;80;25620;-90
2022/03/26 13:34:36;;;;;;;9.73;6.08;;;;;;;20.17;47.14;99334.89;1791932;80;25958;-91
2022/03/26 13:37:14;;;;;;;8.93;5.78;;;;;;;20.17;47.11;99339.88;1791817;80;27357;-91
2022/03/26 13:39:58;;;;;;;9.65;5.97;;;;;;;20.17;47.17;99341.84;1791881;80;25675;-90
2022/03/26 13:42:25;;;;;;;9.50;5.65;;;;;;;20.17;47.20;99337.67;1791578;80;25714;-90
2022/03/26 13:44:55;;;;;;;9.98;5.70;;;;;;;20.16;47.26;99331.89;1791902;80;25462;-90
2022/03/26 13:47:31;;;;;;;11.10;5.90;;;;;;;20.16;47.29;99335.50;1792170;80;25776;-89
2022/03/26 13:50:13;;;;;;;9.80;5.60;;;;;;;20.17;47.38;99324.58;1788705;80;27493;-93
2022/03/26 13:52:42;;;;;;;10.85;6.00;;;;;;;20.17;47.40;99320.98;1791601;79;25721;-90
2022/03/26 13:55:31;;;;;;;13.83;5.83;;;;;;;20.17;47.49;99322.37;1791872;80;25604;-91
2022/03/26 13:58:02;;;;;;;11.88;5.87;;;;;;;20.16;47.51;99316.02;1792033;80;25683;-90
2022/03/26 14:00:30;;;;;;;14.65;6.20;;;;;;;20.16;47.62;99295.73;1791645;80;25412;-86
2022/03/26 14:03:00;;;;;;;11.93;6.05;;;;;;;20.18;47.84;99298.36;1791820;80;27343;-91
2022/03/26 14:05:31;;;;;;;11.78;5.80;;;;;;;20.19;47.84;99299.17;1790293;80;25719;-89
2022/03/26 14:08:01;;;;;;;11.18;5.97;;;;;;;20.20;47.92;99294.42;1790462;80;25720;-88
2022/03/26 14:10:47;;;;;;;9.60;5.78;;;;;;;20.20;47.89;99295.81;1791990;80;26911;-88
2022/03/26 14:13:17;;;;;;;11.83;5.83;;;;;;;20.18;47.88;99290.61;1792009;80;25667;-91
2022/03/26 14:15:49;;;;;;;10.28;5.87;;;;;;;20.15;47.87;99289.34;1792108;80;27360;-89
2022/03/26 14:18:13;;;;;;;9.35;5.60;;;;;;;20.15;47.80;99289.95;1791265;80;25417;-92
2022/03/26 14:20:40;;;;;;;11.60;5.58;;;;;;;20.15;47.78;99284.38;1792173;80;25554;-91
2022/03/26 14:23:08;;;;;;;9.60;5.60;;;;;;;20.13;47.80;99282.54;1791982;80;25597;-87
2022/03/26 14:25:37;;;;;;;11.55;5.25;;;;;;;20.12;47.82;99281.72;1791948;80;25731;-88
2022/03/26 14:28:11;;;;;;;9.05;5.50;;;;;;;20.11;47.79;99283.48;1791875;80;28042;-89
2022/03/26 14:30:38;;;;;;;10.00;5.87;;;;;;;20.10;47.82;99275.73;1791591;80;25925;-87
2022/03/26 14:33:06;;;;;;;11.43;5.60;;;;;;;20.11;47.84;99273.16;1791883;80;25676;-89
2022/03/26 14:35:33;;;;;;;10.32;5.37;;;;;;;20.09;47.82;99281.05;1791906;80;25693;-87
2022/03/26 14:38:00;;;;;;;8.75;4.83;;;;;;;20.11;47.84;99276.52;1792115;80;25414;-92
2022/03/26 14:40:28;;;;;;;10.80;5.67;;;;;;;20.09;47.86;99277.48;1792008;80;27411;-92
2022/03/26 14:42:56;;;;;;;11.12;5.42;;;;;;;20.08;47.87;99273.89;1791448;80;25624;-92
2022/03/26 14:45:22;;;;;;;9.40;5.42;;;;;;;20.07;47.95;99270.89;1791931;80;25772;-91
2022/03/26 14:47:49;;;;;;;8.85;5.20;;;;;;;20.06;47.93;99267.88;1792071;80;26007;-91
2022/03/26 14:50:16;;;;;;;8.93;4.85;;;;;;;20.04;47.99;99264.06;1791950;80;25586;-91
2022/03/26 14:52:42;;;;;;;8.43;5.62;;;;;;;20.03;48.00;99269.41;1791638;79;27408;-90
2022/03/26 14:55:11;;;;;;;8.25;5.28;;;;;;;20.03;48.02;99272.20;1791892;80;25423;-91
2022/03/26 14:57:40;;;;;;;8.63;4.80;;;;;;;20.02;48.07;99268.38;1791843;80;25470;-90
2022/03/26 15:00:10;;;;;;;10.90;5.47;;;;;;;20.01;48.10;99261.19;1791599;80;25628;-92
2022/03/26 15:02:37;;;;;;;9.50;5.58;;;;;;;20.00;48.08;99262.37;1792119;80;25696;-91
2022/03/26 15:05:04;;;;;;;8.10;5.30;;;;;;;19.98;48.10;99264.70;1792105;80;28020;-91
2022/03/26 15:07:31;;;;;;;7.70;4.78;;;;;;;19.99;48.13;99266.30;1791803;80;25879;-91
2022/03/26 15:09:59;;;;;;;9.15;5.50;;;;;;;19.97;48.16;99266.66;1791900;80;25466;-90
2022/03/26 15:12:25;;;;;;;7.75;5.17;;;;;;;19.97;48.20;99272.83;1791798;80;25647;-91
2022/03/26 15:14:52;;;;;;;9.58;5.37;;;;;;;19.95;48.19;99266.23;1791912;80;25404;-91
2022/03/26 15:17:19;;;;;;;7.92;5.40;;;;;;;19.94;48.22;99272.38;1791998;80;27382;-91
2022/03/26 15:19:45;;;;;;;6.20;4.72;;;;;;;19.94;48.23;99275.73;1791909;80;25428;-91
2022/03/26 15:22:11;;;;;;;6.33;4.78;;;;;;;19.93;48.25;99269.95;1791881;80;25720;-91
2022/03/26 15:24:38;;;;;;;8.33;4.95;;;;;;;19.92;48.26;99280.27;1791944;80;25792;-91
2022/03/26 15:27:04;;;;;;;12.23;5.03;;;;;;;19.91;48.32;99270.89;1792114;80;25633;-86
2022/03/26 15:29:31;;;;;;;5.72;4.53;;;;;;;19.90;48.28;99279.02;1791994;80;27973;-91
2022/03/26 15:31:57;;;;;;;8.45;5.00;;;;;;;19.88;48.28;99283.55;1791703;80;25432;-88
2022/03/26 15:34:23;;;;;;;9.80;4.60;;;;;;;19.89;48.30;99280.20;1791988;80;25677;-85
2022/03/26 15:36:50;;;;;;;8.90;4.70;;;;;;;19.88;48.33;99289.12;1792076;80;26013;-90
2022/03/26 15:39:17;;;;;;;7.72;5.12;;;;;;;19.88;48.31;99288.30;1791940;80;25668;-90
2022/03/26 15:41:44;;;;;;;8.43;5.03;;;;;;;19.88;48.28;99298.85;1791996;80;27406;-90
2022/03/26 15:44:11;;;;;;;6.17;4.80;;;;;;;19.88;48.23;99298.03;1792163;80;25712;-90
2022/03/26 15:46:37;;;;;;;6.97;4.70;;;;;;;19.87;48.27;99290.87;1791861;80;25673;-90
2022/03/26 15:49:04;;;;;;;8.33;4.75;;;;;;;19.87;48.29;99304.77;1792073;80;25460;-85
2022/03/26 15:51:31;;;;;;;8.13;4.95;;;;;;;19.86;48.26;99292.05;1791758;79;25645;-90
2022/03/26 15:53:57;;;;;;;7.50;4.83;;;;;;;19.86;48.29;99297.61;1791894;80;27395;-88
2022/03/26 15:56:23;;;;;;;6.95;4.90;;;;;;;19.85;48.26;99304.31;1791767;80;25622;-89
2022/03/26 15:58:50;;;;;;;9.70;4.45;;;;;;;19.83;48.31;99301.89;1792044;80;25597;-88
2022/03/26 16:01:16;;;;;;;7.45;4.60;;;;;;;19.84;48.31;99313.27;1791945;80;25649;-88
2022/03/26 16:03:43;;;;;;;8.18;4.90;;;;;;;19.81;48.36;99313.38;1791893;80;25585;-89
2022/03/26 16:06:09;;;;;;;7.00;4.72;;;;;;;19.81;48.39;99317.55;1791961;80;27998;-88
2022/03/26 16:08:35;;;;;;;7.78;4.42;;;;;;;19.80;48.48;99320.69;1791702;80;25676;-90
2022/03/26 16:11:03;;;;;;;7.05;4.58;;;;;;;19.79;48.48;99313.52;1791887;80;25759;-89
2022/03/26 16:13:30;;;;;;;6.53;4.45;;;;;;;19.78;48.38;99304.97;1791483;80;25690;-90
2022/03/26 16:15:56;;;;;;;6.25;4.45;;;;;;;19.78;48.45;99314.70;1791990;80;25765;-90
2022/03/26 16:18:22;;;;;;;7.15;4.60;;;;;;;19.76;48.51;99318.41;1784619;80;27415;-90
2022/03/26 16:20:49;;;;;;;5.87;4.45;;;;;;;19.76;48.61;99324.80;1791801;80;25834;-91
2022/03/26 16:23:16;;;;;;;8.28;4.42;;;;;;;19.76;48.58;99330.36;1791933;80;25705;-90
2022/03/26 16:25:43;;;;;;;7.80;4.92;;;;;;;19.74;48.71;99331.29;1791495;80;26290;-89
2022/03/26 16:28:09;;;;;;;7.87;4.72;;;;;;;19.74;48.66;99329.90;1791866;80;25652;-86
2022/03/26 16:30:36;;;;;;;6.15;4.50;;;;;;;19.73;48.73;99324.70;1791983;80;27389;-89
2022/03/26 16:33:04;;;;;;;6.92;4.62;;;;;;;19.71;48.75;99327.84;1791940;80;25647;-89
2022/03/26 16:35:31;;;;;;;8.40;4.65;;;;;;;19.70;48.73;99322.06;1791441;80;25634;-91
2022/03/26 16:37:58;;;;;;;5.75;4.25;;;;;;;19.71;48.85;99323.66;1791903;80;25640;-90
2022/03/26 16:40:24;;;;;;;6.33;4.87;;;;;;;19.69;48.81;99324.02;1791967;80;25781;-91
2022/03/26 16:42:56;;;;;;;6.45;4.25;;;;;;;19.68;48.86;99328.55;1791789;80;27439;-91
2022/03/26 16:45:22;;;;;;;5.85;4.35;;;;;;;19.66;48.93;99333.08;1791176;80;25752;-91
2022/03/26 16:47:48;;;;;;;7.72;4.90;;;;;;;19.63;48.99;99324.06;1791916;80;25474;-90
2022/03/26 16:50:15;;;;;;;6.62;4.50;;;;;;;19.63;49.09;99324.67;1791868;80;26170;-89
2022/03/26 16:52:41;;;;;;;6.67;4.33;;;;;;;19.61;49.11;99324.21;1791678;79;25420;-91
2022/03/26 16:55:08;;;;;;;7.50;4.60;;;;;;;19.60;49.11;99325.39;1791941;80;27472;-86
2022/03/26 16:57:34;;;;;;;5.28;4.10;;;;;;;19.59;49.24;99323.18;1791845;80;25605;-87
2022/03/26 17:00:01;;;;;;;6.25;5.05;;;;;;;19.60;49.19;99321.22;1791932;80;25612;-88
2022/03/26 17:02:28;;;;;;;5.70;4.28;;;;;;;19.60;49.19;99326.78;1791477;80;25656;-90
2022/03/26 17:04:54;;;;;;;6.92;4.35;;;;;;;19.60;49.22;99325.39;1791991;80;25668;-87
2022/03/26 17:07:21;;;;;;;6.15;4.28;;;;;;;19.60;49.29;99326.78;1791899;80;27334;-90
2022/03/26 17:09:47;;;;;;;5.90;4.22;;;;;;;19.60;49.26;99326.78;1791844;80;25489;-89
2022/03/26 17:12:13;;;;;;;6.62;4.42;;;;;;;19.60;49.31;99333.73;1791930;80;25431;-90
2022/03/26 17:14:40;;;;;;;6.50;4.47;;;;;;;19.58;49.32;99328.53;1792044;80;25467;-91
2022/03/26 17:17:06;;;;;;;7.65;4.58;;;;;;;19.58;49.34;99334.09;1792133;80;25472;-88
2022/03/26 17:19:32;;;;;;;5.22;4.17;;;;;;;19.57;49.42;99335.23;1792049;80;27382;-91
2022/03/26 17:21:59;;;;;;;6.65;4.10;;;;;;;19.56;49.41;99340.00;1792086;80;25573;-90
2022/03/26 17:24:26;;;;;;;6.40;4.42;;;;;;;19.56;49.43;99337.22;1791955;80;25657;-91
2022/03/26 17:26:53;;;;;;;5.80;3.90;;;;;;;19.55;49.49;99346.70;1791735;80;26226;-90
2022/03/26 17:29:20;;;;;;;5.47;4.22;;;;;;;19.54;49.50;99340.12;1791747;80;25651;-90
2022/03/26 17:31:46;;;;;;;7.08;4.33;;;;;;;19.54;49.49;99342.89;1792054;80;26908;-90
2022/03/26 17:34:14;;;;;;;6.60;4.60;;;;;;;19.54;49.50;99347.06;1791535;80;25648;-90
2022/03/26 17:36:41;;;;;;;7.10;4.30;;;;;;;19.53;49.47;99353.23;1791697;80;25434;-90
2022/03/26 17:39:07;;;;;;;6.05;4.45;;;;;;;19.53;49.54;99348.24;1792141;80;25735;-90
2022/03/26 17:41:34;;;;;;;5.03;4.08;;;;;;;19.52;49.55;99350.80;1791995;80;25621;-90
2022/03/26 17:44:00;;;;;;;5.92;4.30;;;;;;;19.51;49.55;99354.16;1792055;80;27353;-90
2022/03/26 17:46:27;;;;;;;6.10;4.67;;;;;;;19.50;49.62;99360.89;1791788;80;25616;-90
2022/03/26 17:48:54;;;;;;;6.42;3.83;;;;;;;19.49;49.63;99355.09;1792054;80;25661;-90
2022/03/26 17:51:20;;;;;;;6.80;4.53;;;;;;;19.49;49.61;99363.42;1791989;80;26140;-90
2022/03/26 17:53:49;;;;;;;7.72;4.30;;;;;;;19.49;49.65;99361.25;1770589;79;25743;-90
2022/03/26 17:56:20;;;;;;;6.22;4.25;;;;;;;19.47;49.70;99368.55;1765829;81;27424;-91
2022/03/26 17:58:44;;;;;;;5.55;4.28;;;;;;;19.47;49.67;99363.56;1765480;80;25797;-90
2022/03/26 18:01:11;;;;;;;7.08;4.58;;;;;;;19.45;49.68;99366.70;1766172;81;25643;-90
2022/03/26 18:03:37;;;;;;;6.95;4.10;;;;;;;19.44;49.79;99366.48;1766206;81;25542;-90
2022/03/26 18:06:04;;;;;;;6.37;4.12;;;;;;;19.43;49.81;99370.44;1766274;80;25583;-90
2022/03/26 18:08:30;;;;;;;6.33;4.12;;;;;;;19.43;49.75;99378.17;1766364;81;28121;-90
2022/03/26 18:10:56;;;;;;;6.80;4.35;;;;;;;19.42;49.83;99377.14;1766251;81;26435;-89
2022/03/26 18:13:23;;;;;;;5.67;4.67;;;;;;;19.41;49.77;99381.91;1766216;80;25712;-90
2022/03/26 18:15:49;;;;;;;6.30;4.35;;;;;;;19.41;49.79;99387.47;1766066;81;25657;-89
2022/03/26 18:18:15;;;;;;;5.78;4.33;;;;;;;19.40;49.84;99406.67;1766257;80;25630;-90
2022/03/26 18:20:42;;;;;;;6.00;4.35;;;;;;;19.40;49.84;99405.89;1766140;80;27436;-87
2022/03/26 18:23:08;;;;;;;5.45;4.28;;;;;;;19.38;49.86;99410.98;1766218;81;25717;-89
2022/03/26 18:25:36;;;;;;;6.60;4.40;;;;;;;19.38;49.87;99418.75;1766333;81;25751;-86
2022/03/26 18:28:03;;;;;;;5.45;4.17;;;;;;;19.38;49.86;99424.31;1765766;80;25712;-89
2022/03/26 18:30:30;;;;;;;5.60;4.37;;;;;;;19.36;49.92;99422.45;1766161;80;25456;-89
2022/03/26 18:32:57;;;;;;;6.67;4.47;;;;;;;19.37;49.93;99429.62;1766000;80;28365;-86
2022/03/26 18:35:24;;;;;;;6.25;4.50;;;;;;;19.36;49.95;99437.73;1765922;81;25682;-87
2022/03/26 18:37:50;;;;;;;6.85;4.17;;;;;;;19.37;49.93;99454.63;1766243;80;25638;-88
2022/03/26 18:40:17;;;;;;;7.35;4.45;;;;;;;19.36;49.95;99459.16;1766008;81;25491;-89
2022/03/26 18:42:45;;;;;;;6.00;4.37;;;;;;;19.36;49.96;99461.93;1765982;80;25662;-85
2022/03/26 18:45:12;;;;;;;5.15;4.10;;;;;;;19.35;49.95;99470.87;1765788;80;27425;-85
2022/03/26 18:47:39;;;;;;;5.87;4.70;;;;;;;19.35;50.03;99472.83;1766031;80;25626;-85
2022/03/26 18:50:09;;;;;;;6.33;4.33;;;;;;;19.33;50.01;99484.30;1766025;80;25677;-88
2022/03/26 18:52:36;;;;;;;7.25;4.50;;;;;;;19.33;49.98;99484.30;1772082;79;26110;-87
2022/03/26 18:55:03;;;;;;;6.50;4.50;;;;;;;19.32;50.01;99479.91;1798048;79;25577;-88
2022/03/26 18:57:31;;;;;;;5.65;4.05;;;;;;;19.32;50.05;99491.03;1797856;79;28207;-87
2022/03/26 18:59:57;;;;;;;5.58;4.22;;;;;;;19.30;50.04;99501.67;1797773;79;25644;-88
2022/03/26 19:02:25;;;;;;;6.58;4.53;;;;;;;19.29;50.14;99514.75;1797958;79;25588;-88
2022/03/26 19:04:52;;;;;;;5.20;4.12;;;;;;;19.29;50.06;99516.73;1797822;79;26161;-88
2022/03/26 19:07:19;;;;;;;6.00;4.20;;;;;;;19.28;50.17;99525.64;1797913;79;25451;-88
2022/03/26 19:09:45;;;;;;;6.08;4.33;;;;;;;19.29;50.16;99537.58;1797893;79;27369;-86
2022/03/26 19:12:13;;;;;;;6.62;4.70;;;;;;;19.29;50.16;99552.86;1797255;79;25463;-88
2022/03/26 19:14:40;;;;;;;6.30;4.20;;;;;;;19.28;50.12;99553.44;1797999;79;25403;-89
2022/03/26 19:17:07;;;;;;;5.60;4.22;;;;;;;19.27;50.22;99550.44;1792661;79;25716;-89
2022/03/26 19:19:35;;;;;;;5.35;4.12;;;;;;;19.26;50.21;99557.13;1798043;79;25475;-88
2022/03/26 19:22:02;;;;;;;5.97;4.42;;;;;;;19.26;50.21;99561.30;1797728;79;27472;-88
2022/03/26 19:24:29;;;;;;;6.40;4.47;;;;;;;19.25;50.20;99561.08;1797620;79;25604;-90
2022/03/26 19:26:56;;;;;;;5.60;4.67;;;;;;;19.26;50.21;99564.08;1797763;79;25743;-89
2022/03/26 19:29:40;;;;;;;6.12;4.97;;;;;;;19.26;50.19;99575.80;1797748;79;26183;-89
2022/03/26 19:32:11;;;;;;;6.37;4.35;;;;;;;19.25;50.21;99574.98;1797578;79;25692;-88
2022/03/26 19:34:39;;;;;;;5.60;4.00;;;;;;;19.24;50.27;99578.92;1797567;79;27361;-90
2022/03/26 19:37:07;;;;;;;5.50;4.45;;;;;;;19.23;50.22;99581.45;1797545;79;25573;-85
2022/03/26 19:39:35;;;;;;;6.08;4.50;;;;;;;19.23;50.22;99586.22;1797810;79;25608;-91
2022/03/26 19:42:03;;;;;;;6.92;4.97;;;;;;;19.24;50.26;99586.44;1797910;79;25452;-90
2022/03/26 19:44:30;;;;;;;5.90;4.33;;;;;;;19.23;50.23;99587.01;1797510;79;25411;-89
2022/03/26 19:46:58;;;;;;;6.87;5.00;;;;;;;19.24;50.20;99592.81;1797691;79;27593;-90
2022/03/26 19:49:26;;;;;;;5.10;4.15;;;;;;;19.23;50.20;99597.33;1797501;79;25658;-91
2022/03/26 19:51:54;;;;;;;5.55;4.50;;;;;;;19.22;50.25;99610.41;1797651;79;25600;-90
2022/03/26 19:54:21;;;;;;;6.42;4.83;;;;;;;19.21;50.27;99606.02;1792792;79;25661;-90
2022/03/26 19:56:50;;;;;;;7.17;4.40;;;;;;;19.22;50.28;99606.80;1791988;80;25637;-88
2022/03/26 19:59:18;;;;;;;5.35;4.37;;;;;;;19.21;50.27;99608.80;1792083;80;27371;-90
2022/03/26 20:01:47;;;;;;;6.47;4.53;;;;;;;19.21;50.31;99614.92;1792015;80;25431;-87
2022/03/26 20:04:16;;;;;;;6.30;4.60;;;;;;;19.22;50.27;99616.53;1792014;80;25428;-90
2022/03/26 20:06:45;;;;;;;7.10;4.60;;;;;;;19.21;50.30;99615.74;1791921;80;25763;-90
2022/03/26 20:09:13;;;;;;;6.08;4.28;;;;;;;19.21;50.34;99619.91;1791634;80;25601;-89
2022/03/26 20:11:45;;;;;;;7.40;4.87;;;;;;;19.20;50.35;99621.05;1791477;80;27375;-89
2022/03/26 20:14:14;;;;;;;6.50;4.70;;;;;;;19.20;50.31;99629.38;1791560;80;25588;-87
2022/03/26 20:19:29;;;;;;;9.13;5.00;;;;;;;19.20;50.32;99639.11;1791440;80;25740;-85
2022/03/26 20:21:57;;;;;;;7.67;5.28;;;;;;;19.20;50.32;99640.50;1791761;80;25629;-88
2022/03/26 20:24:25;;;;;;;9.28;5.22;;;;;;;19.18;50.29;99637.28;1791755;80;27585;-89
2022/03/26 20:26:52;;;;;;;9.75;6.53;;;;;;;19.16;50.32;99641.80;1791856;80;25657;-85
2022/03/26 20:29:20;;;;;;;10.55;6.15;;;;;;;19.16;50.19;99643.18;1791802;80;25578;-88
2022/03/26 20:31:49;;;;;;;10.58;6.40;;;;;;;19.16;50.24;99649.30;1791853;80;25585;-86
2022/03/26 20:34:17;;;;;;;9.68;6.05;;;;;;;19.17;50.08;99655.11;1791871;80;25641;-87
2022/03/26 20:36:44;;;;;;;8.55;6.00;;;;;;;19.18;50.15;99656.16;1791885;80;27439;-87
2022/03/26 20:39:12;;;;;;;9.05;6.55;;;;;;;19.19;50.12;99655.55;1791690;80;25855;-90
2022/03/26 20:41:40;;;;;;;9.13;6.03;;;;;;;19.19;50.05;99663.89;1791770;80;25463;-89